High Gate, Missouri
Current Conditions -  °F | °C
As of 7:53 AM on Thursday 23 Oct 2014 (Local Time) from KVIH Reporting Station
Clear Clear  
Wind Chill:   Ceiling: Unl
Heat Index:   Visibility: 10mi
Dew Point:   Wind: 8mph
Humidity: 83%   Direction: 170°S
Pressure: 30.16"   Gusts: NA
Location:  37.9936°N, 91.5964°W
Report Text: KVIH 231253Z AUTO 17007KT 10SM CLR 08/05 A3016 RMK AO2 SLP216 T00780050
Loading
Personal Weather Stations






























Interactive Weather Map
Tropical Storm Tracking
New forecast layout! Learn more

10-Day Weather Forecast

Advertisements
Track Severe Weather on mobile